createdAt,value
2022-09-28T00:00:01.780Z,21461
2022-09-28T00:00:53.582Z,22078
2022-09-28T00:01:45.475Z,23344
2022-09-28T00:02:37.365Z,21429
2022-09-28T00:03:29.073Z,22533
2022-09-28T00:04:20.931Z,21266
2022-09-28T00:05:12.762Z,20844
2022-09-28T00:06:04.536Z,23572
2022-09-28T00:06:56.372Z,20325
2022-09-28T00:07:48.095Z,22695
2022-09-28T00:08:40.011Z,22792
2022-09-28T00:09:31.841Z,22890
2022-09-28T00:10:23.663Z,22728
2022-09-28T00:11:15.643Z,21234
2022-09-28T00:12:07.312Z,23182
2022-09-28T00:12:59.123Z,22955
2022-09-28T00:13:50.951Z,22630
2022-09-28T00:14:42.767Z,22825
2022-09-28T00:15:34.588Z,23344
2022-09-28T00:16:26.474Z,23182
2022-09-28T00:17:18.161Z,22857
2022-09-28T00:18:10.087Z,22825
2022-09-28T00:19:01.881Z,21883
2022-09-28T00:19:53.714Z,22500
2022-09-28T00:20:45.520Z,22143
2022-09-28T00:21:37.346Z,21981
2022-09-28T00:22:29.187Z,22111
2022-09-28T00:23:20.985Z,21948
2022-09-28T00:24:12.822Z,21104
2022-09-28T00:25:04.610Z,21786
2022-09-28T00:25:56.487Z,21656
2022-09-28T00:26:48.188Z,21461
2022-09-28T00:27:40.109Z,22500
2022-09-28T00:28:31.904Z,21591
2022-09-28T00:29:23.738Z,21007
2022-09-28T00:30:15.552Z,19838
2022-09-28T00:31:07.404Z,20780
2022-09-28T00:31:59.283Z,21656
2022-09-28T00:32:51.017Z,20974
2022-09-28T00:33:42.830Z,21331
2022-09-28T00:34:34.658Z,21299
2022-09-28T00:35:26.466Z,21559
2022-09-28T00:36:18.208Z,20974
2022-09-28T00:37:10.120Z,21072
2022-09-28T00:38:01.931Z,21072
2022-09-28T00:38:53.745Z,20325
2022-09-28T00:39:45.581Z,21039
2022-09-28T00:40:37.424Z,20780
2022-09-28T00:41:29.233Z,20715
2022-09-28T00:42:21.015Z,20617
2022-09-28T00:43:12.863Z,20747
2022-09-28T00:44:04.656Z,21007
2022-09-28T00:44:56.504Z,20974
2022-09-28T00:45:48.265Z,20357
2022-09-28T00:46:40.130Z,20195
2022-09-28T00:47:31.942Z,20520
2022-09-28T00:48:23.690Z,20195
2022-09-28T00:49:15.623Z,19611
2022-09-28T00:50:07.403Z,20130
2022-09-28T00:50:59.229Z,20682
2022-09-28T00:51:51.035Z,20455
2022-09-28T00:52:42.862Z,20357
2022-09-28T00:53:34.671Z,20942
2022-09-28T00:54:26.487Z,20228
2022-09-28T00:55:18.241Z,20065
2022-09-28T00:56:10.135Z,19968
2022-09-28T00:57:01.963Z,20909
2022-09-28T00:57:53.773Z,19968
2022-09-28T00:58:45.597Z,20780
2022-09-28T00:59:37.397Z,20682
2022-09-28T01:00:29.302Z,20455
2022-09-28T01:01:21.055Z,20455
2022-09-28T01:02:12.906Z,19611
2022-09-28T01:03:04.680Z,19838
2022-09-28T01:03:56.491Z,20065
2022-09-28T01:04:48.226Z,20065
2022-09-28T01:05:40.150Z,20617
2022-09-28T01:06:31.946Z,19935
2022-09-28T01:07:23.762Z,19481
2022-09-28T01:08:15.582Z,20000
2022-09-28T01:09:07.403Z,19935
2022-09-28T01:09:59.214Z,19578
2022-09-28T01:10:51.043Z,19708
2022-09-28T01:11:42.846Z,19968
2022-09-28T01:12:34.689Z,19838
2022-09-28T01:13:26.481Z,19741
2022-09-28T01:14:18.242Z,19805
2022-09-28T01:15:10.129Z,19318
2022-09-28T01:16:02.021Z,19059
2022-09-28T01:16:53.763Z,19643
2022-09-28T01:17:45.603Z,19611
2022-09-28T01:18:37.392Z,19189
2022-09-28T01:19:29.253Z,18767
2022-09-28T01:20:21.033Z,19189
2022-09-28T01:21:12.891Z,19189
2022-09-28T01:22:04.668Z,19481
2022-09-28T01:22:56.507Z,19059
2022-09-28T01:23:48.308Z,19805
2022-09-28T01:24:40.139Z,19578
2022-09-28T01:25:31.963Z,19091
2022-09-28T01:26:23.784Z,19124
2022-09-28T01:27:15.583Z,19091
2022-09-28T01:28:07.416Z,20130
2022-09-28T01:28:59.244Z,19611
2022-09-28T01:29:51.051Z,18929
2022-09-28T01:30:42.875Z,19351
2022-09-28T01:31:34.722Z,19124
2022-09-28T01:32:26.502Z,18734
2022-09-28T01:33:18.231Z,18994
2022-09-28T01:34:10.133Z,18052
2022-09-28T01:35:01.973Z,17338
2022-09-28T01:35:53.772Z,17273
2022-09-28T01:36:45.603Z,16494
2022-09-28T01:37:37.406Z,18117
2022-09-28T01:38:29.262Z,17565
2022-09-28T01:39:21.040Z,16267
2022-09-28T01:40:12.878Z,15877
2022-09-28T01:41:04.672Z,14870
2022-09-28T01:41:56.520Z,15163
2022-09-28T01:42:48.245Z,14700
2022-09-28T01:43:40.142Z,14692
2022-09-28T01:44:31.977Z,15000
2022-09-28T01:45:23.784Z,14506
2022-09-28T01:46:15.616Z,14498
2022-09-28T01:47:07.391Z,14506
2022-09-28T01:47:59.229Z,14320
2022-09-28T01:48:51.058Z,14077
2022-09-28T01:49:42.895Z,13883
2022-09-28T01:50:34.691Z,14045
2022-09-28T01:51:26.494Z,14304
2022-09-28T01:52:18.274Z,14102
2022-09-28T01:53:10.131Z,13657
2022-09-28T01:54:01.970Z,13908
2022-09-28T01:54:53.774Z,13657
2022-09-28T01:55:45.604Z,13722
2022-09-28T01:56:37.405Z,13350
2022-09-28T01:57:29.228Z,13722
2022-09-28T01:58:21.051Z,13713
2022-09-28T01:59:12.865Z,13172
2022-09-28T02:00:04.671Z,13657
2022-09-28T02:00:56.561Z,13422
2022-09-28T02:01:48.287Z,13252
2022-09-28T02:02:40.124Z,13188
2022-09-28T02:03:31.924Z,12702
2022-09-28T02:04:23.748Z,11546
2022-09-28T02:05:15.560Z,11174
2022-09-28T02:06:07.370Z,10381
2022-09-28T02:06:59.181Z,9880
2022-09-28T02:07:50.999Z,10147
2022-09-28T02:08:42.805Z,10858
2022-09-28T02:09:34.641Z,9750
2022-09-28T02:10:26.425Z,8707
2022-09-28T02:11:18.165Z,7712
2022-09-28T02:12:10.045Z,6911
2022-09-28T02:13:01.895Z,5609
2022-09-28T02:13:53.665Z,5827
2022-09-28T02:14:45.500Z,5698
2022-09-28T02:15:37.276Z,5868
2022-09-28T02:16:29.147Z,4088
2022-09-28T02:17:20.901Z,3425
2022-09-28T02:18:12.728Z,3444
2022-09-28T02:19:04.499Z,3411
2022-09-28T02:19:56.314Z,3339
2022-09-28T02:20:48.018Z,3611
2022-09-28T02:21:39.932Z,3967
2022-09-28T02:22:31.711Z,3716
2022-09-28T02:23:23.524Z,3975
2022-09-28T02:24:19.305Z,6191
2022-09-28T02:25:07.116Z,4760
2022-09-28T02:25:58.879Z,3502
2022-09-28T02:26:50.731Z,2970
2022-09-28T02:27:42.496Z,2758
2022-09-28T02:28:34.314Z,2678
2022-09-28T02:29:26.104Z,2593
2022-09-28T02:30:17.917Z,2752
2022-09-28T02:31:09.704Z,2825
2022-09-28T02:32:01.490Z,2938
2022-09-28T02:32:53.284Z,2756
2022-09-28T02:33:45.090Z,2859
2022-09-28T02:34:36.868Z,2865
2022-09-28T02:35:28.584Z,2889
2022-09-28T02:36:20.463Z,2615
2022-09-28T02:37:12.260Z,2434
2022-09-28T02:38:04.051Z,2382
2022-09-28T02:38:55.850Z,2271
2022-09-28T02:39:47.633Z,2059
2022-09-28T02:40:39.491Z,2194
2022-09-28T02:41:31.215Z,2128
2022-09-28T02:42:23.016Z,2184
2022-09-28T02:43:14.781Z,2218
2022-09-28T02:44:06.622Z,2259
2022-09-28T02:44:58.277Z,2259
2022-09-28T02:45:50.216Z,2198
2022-09-28T02:46:41.945Z,2196
2022-09-28T02:47:33.746Z,2301
2022-09-28T02:48:41.514Z,2136
2022-09-28T02:49:21.849Z,2023
2022-09-28T02:50:09.026Z,1868
2022-09-28T02:51:00.804Z,1773
2022-09-28T02:51:52.687Z,1696
2022-09-28T02:52:44.480Z,1690
2022-09-28T02:53:36.274Z,1842
2022-09-28T02:54:28.001Z,1825
2022-09-28T02:55:19.821Z,1642
2022-09-28T02:56:11.639Z,1624
2022-09-28T02:57:03.418Z,1553
2022-09-28T02:57:55.205Z,1559
2022-09-28T02:58:46.985Z,1519
2022-09-28T02:59:38.698Z,1435
2022-09-28T03:00:30.561Z,1424
2022-09-28T03:01:22.367Z,1408
2022-09-28T03:02:14.175Z,1380
2022-09-28T03:03:05.909Z,1430
2022-09-28T03:03:57.691Z,1473
2022-09-28T03:04:49.485Z,1475
2022-09-28T03:05:41.249Z,1445
2022-09-28T03:06:33.038Z,1310
2022-09-28T03:07:24.800Z,1207
2022-09-28T03:08:16.616Z,1219
2022-09-28T03:09:08.293Z,1203
2022-09-28T03:10:00.180Z,1179
2022-09-28T03:10:51.937Z,1118
2022-09-28T03:11:43.747Z,1136
2022-09-28T03:12:35.506Z,1146
2022-09-28T03:13:27.298Z,1116
2022-09-28T03:14:19.058Z,1015
2022-09-28T03:15:10.884Z,989
2022-09-28T03:16:02.655Z,919
2022-09-28T03:16:54.424Z,987
2022-09-28T03:17:46.210Z,1009
2022-09-28T03:18:37.976Z,1094
2022-09-28T03:19:29.746Z,1146
2022-09-28T03:20:21.559Z,1239
2022-09-28T03:21:13.306Z,1257
2022-09-28T03:22:05.110Z,1298
2022-09-28T03:23:22.879Z,1209
2022-09-28T03:23:48.600Z,1225
2022-09-28T03:24:40.433Z,1213
2022-09-28T03:25:32.219Z,1058
2022-09-28T03:26:23.993Z,1021
2022-09-28T03:27:15.783Z,872
2022-09-28T03:28:07.555Z,864
2022-09-28T03:28:59.347Z,844
2022-09-28T03:29:51.113Z,874
2022-09-28T03:30:42.898Z,915
2022-09-28T03:31:34.716Z,1003
2022-09-28T03:32:26.462Z,1070
2022-09-28T03:33:18.148Z,965
2022-09-28T03:34:10.018Z,1056
2022-09-28T03:35:01.779Z,1025
2022-09-28T03:35:53.595Z,939
2022-09-28T03:36:45.367Z,824
2022-09-28T03:37:37.189Z,768
2022-09-28T03:38:28.918Z,786
2022-09-28T03:39:20.705Z,696
2022-09-28T03:40:12.475Z,731
2022-09-28T03:41:04.403Z,721
2022-09-28T03:41:56.046Z,686
2022-09-28T03:42:47.842Z,679
2022-09-28T03:43:39.600Z,680
2022-09-28T03:44:31.388Z,687
2022-09-28T03:45:23.157Z,689
2022-09-28T03:46:15.022Z,694
2022-09-28T03:47:06.722Z,698
2022-09-28T03:47:58.453Z,695
2022-09-28T03:48:50.263Z,733
2022-09-28T03:49:42.055Z,763
2022-09-28T03:50:33.818Z,694
2022-09-28T03:51:25.615Z,686
2022-09-28T03:52:17.388Z,654
2022-09-28T03:53:09.174Z,657
2022-09-28T03:54:00.868Z,668
2022-09-28T03:54:52.727Z,679
2022-09-28T03:55:44.476Z,675
2022-09-28T03:56:36.280Z,673
2022-09-28T03:57:28.036Z,662
2022-09-28T03:58:19.828Z,641
2022-09-28T03:59:11.598Z,647
2022-09-28T04:00:03.359Z,645
2022-09-28T04:00:55.224Z,642
2022-09-28T04:01:46.992Z,658
2022-09-28T04:02:38.674Z,673
2022-09-28T04:03:30.491Z,657
2022-09-28T04:04:22.252Z,659
2022-09-28T04:05:14.035Z,705
2022-09-28T04:06:05.785Z,698
2022-09-28T04:06:57.582Z,652
2022-09-28T04:07:49.337Z,623
2022-09-28T04:08:41.133Z,607
2022-09-28T04:09:32.886Z,614
2022-09-28T04:10:24.674Z,613
2022-09-28T04:11:16.449Z,615
2022-09-28T04:12:08.153Z,641
2022-09-28T04:12:59.997Z,761
2022-09-28T04:13:51.775Z,715
2022-09-28T04:14:43.547Z,675
2022-09-28T04:15:35.322Z,672
2022-09-28T04:16:27.158Z,628
2022-09-28T04:17:18.812Z,624
2022-09-28T04:18:10.645Z,633
2022-09-28T04:19:02.419Z,621
2022-09-28T04:19:54.231Z,609
2022-09-28T04:20:45.984Z,631
2022-09-28T04:21:37.752Z,631
2022-09-28T04:22:29.540Z,620
2022-09-28T04:23:21.313Z,614
2022-09-28T04:24:13.076Z,592
2022-09-28T04:25:04.857Z,593
2022-09-28T04:25:56.627Z,590
2022-09-28T04:26:48.306Z,600
2022-09-28T04:27:40.183Z,621
2022-09-28T04:28:31.941Z,649
2022-09-28T04:29:23.735Z,643
2022-09-28T04:30:15.479Z,641
2022-09-28T04:31:07.280Z,633
2022-09-28T04:31:59.074Z,650
2022-09-28T04:32:50.807Z,636
2022-09-28T04:33:42.570Z,647
2022-09-28T04:34:36.484Z,657
2022-09-28T04:35:26.119Z,649
2022-09-28T04:36:17.906Z,636
2022-09-28T04:37:09.665Z,605
2022-09-28T04:38:01.443Z,607
2022-09-28T04:38:53.705Z,608
2022-09-28T04:39:48.225Z,614
2022-09-28T04:40:36.824Z,597
2022-09-28T04:41:28.540Z,588
2022-09-28T04:42:20.319Z,576
2022-09-28T04:43:12.102Z,573
2022-09-28T04:44:03.863Z,578
2022-09-28T04:44:55.655Z,558
2022-09-28T04:45:47.499Z,592
2022-09-28T04:46:39.209Z,599
2022-09-28T04:47:30.991Z,597
2022-09-28T04:48:22.753Z,605
2022-09-28T04:49:14.727Z,595
2022-09-28T04:50:06.204Z,580
2022-09-28T04:50:58.084Z,565
2022-09-28T04:51:49.853Z,553
2022-09-28T04:52:41.602Z,557
2022-09-28T04:53:33.403Z,570
2022-09-28T04:54:25.158Z,540
2022-09-28T04:55:16.938Z,564
2022-09-28T04:56:08.619Z,578
2022-09-28T04:57:00.468Z,586
2022-09-28T04:57:52.236Z,598
2022-09-28T04:58:45.286Z,610
2022-09-28T04:59:35.770Z,595
2022-09-28T05:00:27.574Z,597
2022-09-28T05:01:19.384Z,588
2022-09-28T05:02:11.199Z,616
2022-09-28T05:03:02.876Z,597
2022-09-28T05:03:54.638Z,583
2022-09-28T05:04:46.413Z,568
2022-09-28T05:05:38.164Z,568
2022-09-28T05:06:29.937Z,606
2022-09-28T05:07:21.761Z,604
2022-09-28T05:08:13.468Z,614
2022-09-28T05:09:05.264Z,621
2022-09-28T05:09:57.010Z,607
2022-09-28T05:10:48.717Z,588
2022-09-28T05:11:40.564Z,602
2022-09-28T05:12:32.364Z,595
2022-09-28T05:13:24.098Z,624
2022-09-28T05:14:15.884Z,643
2022-09-28T05:15:07.639Z,667
2022-09-28T05:16:03.056Z,678
2022-09-28T05:16:51.225Z,680
2022-09-28T05:17:42.996Z,672
2022-09-28T05:18:34.740Z,660
2022-09-28T05:19:26.509Z,652
2022-09-28T05:20:18.231Z,632
2022-09-28T05:21:10.059Z,614
2022-09-28T05:22:01.832Z,620
2022-09-28T05:22:53.600Z,619
2022-09-28T05:23:45.357Z,625
2022-09-28T05:24:37.137Z,620
2022-09-28T05:25:28.813Z,617
2022-09-28T05:26:20.677Z,625
2022-09-28T05:27:12.434Z,604
2022-09-28T05:28:04.214Z,598
2022-09-28T05:28:55.984Z,594
2022-09-28T05:29:47.750Z,600
2022-09-28T05:30:39.512Z,568
2022-09-28T05:31:31.350Z,569
2022-09-28T05:32:23.064Z,587
2022-09-28T05:33:14.825Z,591
2022-09-28T05:34:06.588Z,588
2022-09-28T05:34:58.315Z,592
2022-09-28T05:35:54.448Z,608
2022-09-28T05:36:41.901Z,600
2022-09-28T05:37:33.646Z,595
2022-09-28T05:38:25.447Z,597
2022-09-28T05:39:17.309Z,602
2022-09-28T05:40:08.974Z,633
2022-09-28T05:41:05.685Z,622
2022-09-28T05:41:52.510Z,623
2022-09-28T05:42:44.287Z,601
2022-09-28T05:43:36.038Z,620
2022-09-28T05:44:27.798Z,601
2022-09-28T05:45:19.579Z,574
2022-09-28T05:46:11.420Z,577
2022-09-28T05:47:03.121Z,560
2022-09-28T05:47:54.872Z,543
2022-09-28T05:48:46.647Z,545
2022-09-28T05:49:38.310Z,539
2022-09-28T05:50:30.176Z,546
2022-09-28T05:51:21.921Z,542
2022-09-28T05:52:13.706Z,558
2022-09-28T05:53:05.455Z,572
2022-09-28T05:54:00.646Z,619
2022-09-28T05:54:48.970Z,625
2022-09-28T05:55:40.770Z,629
2022-09-28T05:56:32.528Z,670
2022-09-28T05:57:24.311Z,677
2022-09-28T05:58:16.103Z,655
2022-09-28T05:59:07.835Z,651
2022-09-28T05:59:59.619Z,649
2022-09-28T06:00:51.406Z,662
2022-09-28T06:01:43.215Z,642
2022-09-28T06:02:35.014Z,636
2022-09-28T06:03:26.663Z,618
2022-09-28T06:04:18.581Z,614
2022-09-28T06:05:10.218Z,616
2022-09-28T06:06:01.989Z,609
2022-09-28T06:06:53.752Z,610
2022-09-28T06:07:45.525Z,606
2022-09-28T06:08:37.301Z,590
2022-09-28T06:09:28.992Z,582
2022-09-28T06:10:20.836Z,573
2022-09-28T06:11:12.614Z,560
2022-09-28T06:12:04.352Z,581
2022-09-28T06:12:56.127Z,583
2022-09-28T06:13:47.881Z,568
2022-09-28T06:14:39.668Z,577
2022-09-28T06:15:31.411Z,571
2022-09-28T06:16:23.227Z,576
2022-09-28T06:17:14.941Z,572
2022-09-28T06:18:06.726Z,568
2022-09-28T06:18:58.385Z,585
2022-09-28T06:19:50.253Z,566
2022-09-28T06:20:42.036Z,558
2022-09-28T06:21:33.776Z,576
2022-09-28T06:22:25.554Z,607
2022-09-28T06:23:17.340Z,654
2022-09-28T06:24:08.979Z,672
2022-09-28T06:25:00.859Z,687
2022-09-28T06:25:52.598Z,693
2022-09-28T06:26:44.400Z,739
2022-09-28T06:27:36.133Z,731
2022-09-28T06:28:27.911Z,676
2022-09-28T06:29:19.956Z,812
2022-09-28T06:30:11.451Z,846
2022-09-28T06:31:03.306Z,870
2022-09-28T06:31:54.976Z,684
2022-09-28T06:32:46.731Z,656
2022-09-28T06:33:38.450Z,652
2022-09-28T06:34:30.278Z,637
2022-09-28T06:35:22.047Z,627
2022-09-28T06:36:13.808Z,632
2022-09-28T06:37:05.577Z,660
2022-09-28T06:37:57.333Z,676
2022-09-28T06:38:49.125Z,667
2022-09-28T06:39:40.868Z,672
2022-09-28T06:40:32.744Z,674
2022-09-28T06:41:24.400Z,674
2022-09-28T06:42:16.205Z,669
2022-09-28T06:43:07.927Z,644
2022-09-28T06:43:59.723Z,633
2022-09-28T06:44:51.469Z,644
2022-09-28T06:45:43.341Z,637
2022-09-28T06:46:35.058Z,656
2022-09-28T06:47:26.793Z,664
2022-09-28T06:48:18.477Z,652
2022-09-28T06:49:10.322Z,642
2022-09-28T06:50:02.083Z,605
2022-09-28T06:50:53.872Z,591
2022-09-28T06:51:45.615Z,577
2022-09-28T06:52:37.387Z,572
2022-09-28T06:53:29.143Z,584
2022-09-28T06:54:20.929Z,594
2022-09-28T06:55:12.670Z,574
2022-09-28T06:56:04.463Z,576
2022-09-28T06:56:56.219Z,575
2022-09-28T06:57:47.985Z,569
2022-09-28T06:58:39.730Z,550
2022-09-28T06:59:31.523Z,553
2022-09-28T07:00:23.258Z,564
2022-09-28T07:01:15.132Z,554
2022-09-28T07:02:06.851Z,540
2022-09-28T07:02:58.495Z,524
2022-09-28T07:03:54.837Z,536
2022-09-28T07:04:42.107Z,519
2022-09-28T07:05:33.843Z,516
2022-09-28T07:06:25.639Z,509
2022-09-28T07:07:17.393Z,526
2022-09-28T07:08:09.113Z,538
2022-09-28T07:09:19.949Z,529
2022-09-28T07:09:55.214Z,533
2022-09-28T07:10:44.429Z,540
2022-09-28T07:11:36.203Z,535
2022-09-28T07:12:27.959Z,544
2022-09-28T07:13:38.544Z,543
2022-09-28T07:14:21.179Z,544
2022-09-28T07:15:03.198Z,551
2022-09-28T07:15:55.007Z,561
2022-09-28T07:17:03.490Z,554
2022-09-28T07:17:54.225Z,538
2022-09-28T07:18:30.372Z,517
2022-09-28T07:19:22.061Z,516
2022-09-28T07:20:18.724Z,545
2022-09-28T07:21:05.589Z,558
2022-09-28T07:22:04.171Z,543
2022-09-28T07:22:49.081Z,554
2022-09-28T07:23:50.824Z,566
2022-09-28T07:24:32.654Z,548
2022-09-28T07:25:24.410Z,545
2022-09-28T07:26:18.378Z,544
2022-09-28T07:27:07.933Z,534
2022-09-28T07:27:59.677Z,534
2022-09-28T07:28:51.485Z,563
2022-09-28T07:29:43.217Z,588
2022-09-28T07:30:35.024Z,593
2022-09-28T07:31:26.737Z,635
2022-09-28T07:32:18.512Z,687
2022-09-28T07:33:10.264Z,1092
2022-09-28T07:34:02.035Z,1058
2022-09-28T07:34:58.152Z,899
2022-09-28T07:35:45.590Z,676
2022-09-28T07:36:37.317Z,687
2022-09-28T07:37:29.032Z,678
2022-09-28T07:38:20.853Z,666
2022-09-28T07:39:12.642Z,652
2022-09-28T07:40:04.385Z,656
2022-09-28T07:40:56.227Z,653
2022-09-28T07:41:47.927Z,669
2022-09-28T07:42:39.697Z,681
2022-09-28T07:43:31.452Z,685
2022-09-28T07:44:23.243Z,727
2022-09-28T07:45:14.990Z,698
2022-09-28T07:46:06.815Z,677
2022-09-28T07:46:58.461Z,684
2022-09-28T07:47:50.292Z,677
2022-09-28T07:48:42.060Z,658
2022-09-28T07:49:33.830Z,646
2022-09-28T07:50:25.587Z,688
2022-09-28T07:51:17.386Z,701
2022-09-28T07:52:09.085Z,689
2022-09-28T07:53:00.924Z,686
2022-09-28T07:53:52.661Z,694
2022-09-28T07:54:44.440Z,652
2022-09-28T07:55:36.182Z,627
2022-09-28T07:56:27.977Z,613
2022-09-28T07:57:19.737Z,595
2022-09-28T07:58:11.528Z,590
2022-09-28T07:59:03.265Z,594
2022-09-28T07:59:55.033Z,573
2022-09-28T08:00:46.785Z,619
2022-09-28T08:01:38.561Z,629
2022-09-28T08:02:30.358Z,633
2022-09-28T08:03:22.100Z,637
2022-09-28T08:04:13.845Z,629
2022-09-28T08:05:05.632Z,673
2022-09-28T08:05:57.399Z,707
2022-09-28T08:06:49.129Z,892
2022-09-28T08:07:40.917Z,965
2022-09-28T08:08:32.686Z,864
2022-09-28T08:09:24.464Z,798
2022-09-28T08:10:16.214Z,696
2022-09-28T08:11:07.980Z,673
2022-09-28T08:11:59.746Z,665
2022-09-28T08:12:51.507Z,652
2022-09-28T08:13:43.302Z,656
2022-09-28T08:14:35.030Z,686
2022-09-28T08:15:26.814Z,733
2022-09-28T08:16:18.616Z,689
2022-09-28T08:17:10.342Z,673
2022-09-28T08:18:03.000Z,666
2022-09-28T08:18:53.874Z,669
2022-09-28T08:19:45.628Z,684
2022-09-28T08:20:37.395Z,692
2022-09-28T08:21:29.119Z,659
2022-09-28T08:22:20.941Z,645
2022-09-28T08:23:12.692Z,610
2022-09-28T08:24:04.464Z,614
2022-09-28T08:24:56.208Z,597
2022-09-28T08:25:47.994Z,591
2022-09-28T08:26:39.732Z,584
2022-09-28T08:27:31.537Z,584
2022-09-28T08:28:23.283Z,595
2022-09-28T08:29:15.086Z,620
2022-09-28T08:30:06.765Z,597
2022-09-28T08:30:58.626Z,596
2022-09-28T08:31:50.331Z,593
2022-09-28T08:32:42.103Z,583
2022-09-28T08:33:33.867Z,585
2022-09-28T08:34:25.638Z,604
2022-09-28T08:35:17.399Z,606
2022-09-28T08:36:09.114Z,610
2022-09-28T08:37:00.924Z,625
2022-09-28T08:37:55.501Z,614
2022-09-28T08:38:44.440Z,613
2022-09-28T08:39:36.232Z,601
2022-09-28T08:40:28.017Z,611
2022-09-28T08:41:19.751Z,602
2022-09-28T08:42:11.491Z,593
2022-09-28T08:43:03.294Z,610
2022-09-28T08:43:55.055Z,590
2022-09-28T08:44:46.811Z,595
2022-09-28T08:45:38.566Z,602
2022-09-28T08:46:30.389Z,644
2022-09-28T08:47:22.076Z,691
2022-09-28T08:48:13.858Z,1187
2022-09-28T08:49:24.239Z,1316
2022-09-28T08:49:57.381Z,1336
2022-09-28T08:50:49.035Z,1241
2022-09-28T08:51:40.902Z,1029
2022-09-28T08:52:32.665Z,828
2022-09-28T08:53:24.433Z,763
2022-09-28T08:54:16.295Z,768
2022-09-28T08:55:07.974Z,703
2022-09-28T08:55:59.733Z,778
2022-09-28T08:56:51.504Z,772
2022-09-28T08:57:43.246Z,693
2022-09-28T08:58:35.054Z,717
2022-09-28T08:59:26.778Z,715
2022-09-28T09:00:18.560Z,796
2022-09-28T09:01:10.360Z,1181
2022-09-28T09:02:02.258Z,1231
2022-09-28T09:02:53.924Z,1308
2022-09-28T09:03:45.656Z,1277
2022-09-28T09:04:37.392Z,1090
2022-09-28T09:05:29.112Z,1104
2022-09-28T09:06:20.925Z,1420
2022-09-28T09:07:12.717Z,1624
2022-09-28T09:08:04.530Z,1574
2022-09-28T09:08:56.246Z,1505
2022-09-28T09:09:48.027Z,1539
2022-09-28T09:10:39.783Z,1132
2022-09-28T09:11:31.559Z,792
2022-09-28T09:12:23.340Z,933
2022-09-28T09:13:15.088Z,1435
2022-09-28T09:14:06.869Z,1467
2022-09-28T09:14:58.604Z,1370
2022-09-28T09:15:50.418Z,1336
2022-09-28T09:16:42.335Z,1171
2022-09-28T09:17:33.960Z,1042
2022-09-28T09:18:25.712Z,1029
2022-09-28T09:19:17.500Z,880
2022-09-28T09:20:09.179Z,862
2022-09-28T09:21:01.030Z,782
2022-09-28T09:21:52.785Z,1445
2022-09-28T09:22:44.563Z,1564
2022-09-28T09:23:36.320Z,1396
2022-09-28T09:24:28.111Z,1275
2022-09-28T09:25:19.873Z,1443
2022-09-28T09:26:12.067Z,1388
2022-09-28T09:27:03.388Z,1298
2022-09-28T09:27:55.194Z,1428
2022-09-28T09:28:46.927Z,1463
2022-09-28T09:29:38.636Z,1531
2022-09-28T09:30:31.607Z,1487
2022-09-28T09:31:22.957Z,1384
2022-09-28T09:32:14.053Z,1275
2022-09-28T09:33:05.781Z,1654
2022-09-28T09:33:57.556Z,1936
2022-09-28T09:34:49.260Z,2029
2022-09-28T09:35:41.090Z,2077
2022-09-28T09:36:32.864Z,2091
2022-09-28T09:37:24.623Z,2148
2022-09-28T09:38:16.407Z,2170
2022-09-28T09:39:08.171Z,2184
2022-09-28T09:39:59.953Z,2224
2022-09-28T09:40:51.836Z,2190
2022-09-28T09:41:43.507Z,2154
2022-09-28T09:42:35.265Z,2206
2022-09-28T09:43:29.524Z,2172
2022-09-28T09:44:18.918Z,2114
2022-09-28T09:45:10.612Z,2150
2022-09-28T09:46:02.454Z,2071
2022-09-28T09:46:54.168Z,2128
2022-09-28T09:47:45.923Z,2055
2022-09-28T09:48:37.721Z,2009
2022-09-28T09:49:29.402Z,2033
2022-09-28T09:50:21.279Z,2005
2022-09-28T09:51:13.042Z,2057
2022-09-28T09:52:04.831Z,2009
2022-09-28T09:52:56.627Z,1969
2022-09-28T09:53:48.392Z,2031
2022-09-28T09:54:40.177Z,1971
2022-09-28T09:55:31.942Z,2011
2022-09-28T09:56:23.713Z,2009
2022-09-28T09:57:15.524Z,2033
2022-09-28T09:58:07.283Z,1920
2022-09-28T09:58:58.983Z,1946
2022-09-28T09:59:50.846Z,1952
2022-09-28T10:00:42.613Z,1910
2022-09-28T10:01:34.465Z,1932
2022-09-28T10:02:26.293Z,1884
2022-09-28T10:03:17.959Z,1918
2022-09-28T10:04:09.738Z,1922
2022-09-28T10:05:01.427Z,2011
2022-09-28T10:05:53.312Z,2102
2022-09-28T10:06:45.077Z,2210
2022-09-28T10:07:40.306Z,2063
2022-09-28T10:08:28.624Z,1977
2022-09-28T10:09:20.431Z,2168
2022-09-28T10:10:12.199Z,2492
2022-09-28T10:11:04.026Z,2529
2022-09-28T10:11:55.750Z,2764
2022-09-28T10:12:49.458Z,2696
2022-09-28T10:13:39.266Z,2775
2022-09-28T10:14:31.137Z,2762
2022-09-28T10:15:22.896Z,2845
2022-09-28T10:16:14.726Z,2841
2022-09-28T10:17:06.566Z,2805
2022-09-28T10:17:58.278Z,2827
2022-09-28T10:18:50.041Z,2835
2022-09-28T10:19:41.837Z,2865
2022-09-28T10:20:33.605Z,2847
2022-09-28T10:21:25.407Z,2827
2022-09-28T10:22:17.180Z,2865
2022-09-28T10:23:08.976Z,2889
2022-09-28T10:24:00.752Z,2936
2022-09-28T10:24:52.576Z,2908
2022-09-28T10:25:44.340Z,2958
2022-09-28T10:26:36.157Z,3061
2022-09-28T10:27:27.937Z,3190
2022-09-28T10:28:19.740Z,3244
2022-09-28T10:29:11.527Z,3383
2022-09-28T10:30:03.278Z,3417
2022-09-28T10:30:55.266Z,3389
2022-09-28T10:31:46.901Z,3490
2022-09-28T10:32:38.681Z,3488
2022-09-28T10:33:30.481Z,3502
2022-09-28T10:34:22.294Z,3781
2022-09-28T10:35:14.107Z,3733
2022-09-28T10:36:05.881Z,3999
2022-09-28T10:36:57.702Z,4185
2022-09-28T10:37:49.445Z,4096
2022-09-28T10:38:41.319Z,4040
2022-09-28T10:39:33.089Z,4226
2022-09-28T10:40:24.941Z,4355
2022-09-28T10:41:16.687Z,4299
2022-09-28T10:42:08.513Z,4266
2022-09-28T10:43:00.295Z,4469
2022-09-28T10:43:56.127Z,4485
2022-09-28T10:44:43.900Z,4291
2022-09-28T10:45:35.721Z,4105
2022-09-28T10:46:27.602Z,4347
2022-09-28T10:47:19.243Z,4072
2022-09-28T10:48:11.113Z,3724
2022-09-28T10:49:02.923Z,3446
2022-09-28T10:49:54.731Z,3300
2022-09-28T10:50:46.564Z,3317
2022-09-28T10:51:38.326Z,3395
2022-09-28T10:52:30.148Z,3395
2022-09-28T10:53:21.960Z,3821
2022-09-28T10:54:13.818Z,4113
2022-09-28T10:55:05.551Z,4460
2022-09-28T10:55:57.378Z,4242
2022-09-28T10:56:49.063Z,4347
2022-09-28T10:57:40.978Z,4719
2022-09-28T10:58:32.775Z,5116
2022-09-28T10:59:24.603Z,5447
2022-09-28T11:00:16.403Z,5391
2022-09-28T11:01:08.235Z,5310
2022-09-28T11:02:00.052Z,4930
2022-09-28T11:02:51.939Z,5027
2022-09-28T11:03:43.592Z,5002
2022-09-28T11:04:35.435Z,4930
2022-09-28T11:05:27.219Z,4679
2022-09-28T11:06:18.957Z,4420
2022-09-28T11:07:11.734Z,4428
2022-09-28T11:08:02.651Z,4671
2022-09-28T11:08:54.449Z,4735
2022-09-28T11:09:48.498Z,4760
2022-09-28T11:10:38.055Z,4727
2022-09-28T11:11:29.871Z,4776
2022-09-28T11:12:21.666Z,4776
2022-09-28T11:13:13.480Z,4824
2022-09-28T11:14:05.302Z,4816
2022-09-28T11:14:57.098Z,5035
2022-09-28T11:15:48.843Z,5010
2022-09-28T11:16:40.758Z,4695
2022-09-28T11:17:32.526Z,4744
2022-09-28T11:18:24.328Z,4590
2022-09-28T11:19:16.210Z,5196
2022-09-28T11:20:07.959Z,5124
2022-09-28T11:20:59.746Z,5261
2022-09-28T11:21:51.599Z,5318
2022-09-28T11:22:43.358Z,5002
2022-09-28T11:23:35.190Z,5180
2022-09-28T11:24:27.357Z,5261
2022-09-28T11:25:18.805Z,5002
2022-09-28T11:26:12.762Z,5124
2022-09-28T11:27:02.411Z,5035
2022-09-28T11:27:54.204Z,5132
2022-09-28T11:28:46.040Z,5196
2022-09-28T11:29:37.825Z,5196
2022-09-28T11:30:29.618Z,5302
2022-09-28T11:31:21.455Z,5294
2022-09-28T11:32:15.827Z,5326
2022-09-28T11:33:05.052Z,5439
2022-09-28T11:33:56.865Z,5245
2022-09-28T11:34:59.201Z,5560
2022-09-28T11:35:40.476Z,5520